Dades meteomassalio
Diari Summary for Gener 15, 2017 Units:  English    Metric   Both
« Previous Day
Next Day »
Diari Semanal Mensual Anual Personalitzat
  Maxima: Minima: Mijana:
Temperatura: 52.3 °F 39.2 °F 44.1 °F
Rosada: 39 °F 33.3 °F 36 °F
Humitat: 83 % 52 % 73 %
Velocitat del vent: 41.4 mph 10.4 mph 23.1 mph
Racha vent: 41.4 mph - -
Vent:- - NW
Pressio: 30.3 in 30.2 in -
Pluja: 0 in    
Historical Graphs
 
 
Tabular Data for Gener 15, 2017
Time Temperature Dew Point Pressure Wind Wind Speed Wind Gust Humidity Rainfall Rate (Hourly) solar Conditions
00:01 39.6 °F 33.3 °F 30.3 in NW 13 mph 13 mph 78 % 0 in 0.0 W/m2 CLR
00:06 39.6 °F 33.3 °F 30.3 in NW 20.7 mph 20.7 mph 78 % 0 in 0.0 W/m2 CLR
00:11 39.7 °F 33.4 °F 30.3 in NW 19.6 mph 19.6 mph 78 % 0 in 0.0 W/m2 CLR
00:16 39.7 °F 33.4 °F 30.3 in NW 25.3 mph 25.3 mph 78 % 0 in 0.0 W/m2 CLR
00:21 39.7 °F 33.6 °F 30.3 in NW 17.3 mph 17.3 mph 79 % 0 in 0.0 W/m2 CLR
00:26 39.7 °F 33.6 °F 30.3 in NW 18.4 mph 18.4 mph 79 % 0 in 0.0 W/m2 CLR
00:31 39.7 °F 33.8 °F 30.3 in NW 17.3 mph 17.3 mph 79 % 0 in 0.0 W/m2 CLR
00:36 39.6 °F 33.6 °F 30.3 in NW 16.1 mph 16.1 mph 79 % 0 in 0.0 W/m2 CLR
00:41 39.7 °F 33.6 °F 30.3 in NW 18.4 mph 18.4 mph 79 % 0 in 0.0 W/m2 CLR
00:46 39.7 °F 33.6 °F 30.3 in NW 19.6 mph 19.6 mph 79 % 0 in 0.0 W/m2 CLR
00:51 39.7 °F 34 °F 30.3 in NW 16.1 mph 16.1 mph 80 % 0 in 0.0 W/m2 CLR
00:56 39.6 °F 34 °F 30.3 in NW 15 mph 15 mph 80 % 0 in 0.0 W/m2 CLR
01:01 39.6 °F 34.2 °F 30.3 in NW 16.1 mph 16.1 mph 81 % 0 in 0.0 W/m2 CLR
01:06 39.6 °F 34.2 °F 30.3 in NW 18.4 mph 18.4 mph 81 % 0 in 0.0 W/m2 CLR
01:11 39.7 °F 34 °F 30.3 in NW 15 mph 15 mph 80 % 0 in 0.0 W/m2 CLR
01:16 39.6 °F 34.2 °F 30.3 in NW 19.6 mph 19.6 mph 81 % 0 in 0.0 W/m2 CLR
01:21 39.7 °F 34 °F 30.3 in NW 13.8 mph 13.8 mph 80 % 0 in 0.0 W/m2 CLR
01:26 39.7 °F 34 °F 30.3 in NW 20 mph 20 mph 80 % 0 in 0.0 W/m2 CLR
01:31 39.7 °F 34.2 °F 30.3 in WNW 17.3 mph 17.3 mph 80 % 0 in 0.0 W/m2 CLR
01:36 39.7 °F 34.2 °F 30.3 in NW 18.4 mph 18.4 mph 80 % 0 in 0.0 W/m2 CLR
01:41 39.7 °F 34.2 °F 30.3 in NW 15 mph 15 mph 80 % 0 in 0.0 W/m2 CLR
01:46 39.7 °F 34 °F 30.3 in WNW 18 mph 18 mph 80 % 0 in 0.0 W/m2 CLR
01:51 39.7 °F 34.2 °F 30.3 in WNW 20.7 mph 20.7 mph 80 % 0 in 0.0 W/m2 CLR
01:56 39.9 °F 34 °F 30.3 in WNW 19.6 mph 19.6 mph 79 % 0 in 0.0 W/m2 CLR
02:01 39.9 °F 34 °F 30.3 in WNW 15 mph 16 mph 79 % 0 in 0.0 W/m2 CLR
02:06 39.9 °F 34 °F 30.3 in WNW 20.7 mph 20.7 mph 79 % 0 in 0.0 W/m2 CLR
02:11 40.1 °F 34.2 °F 30.3 in NW 23 mph 23 mph 79 % 0 in 0.0 W/m2 CLR
02:16 40.3 °F 34 °F 30.3 in NW 21 mph 21 mph 78 % 0 in 0.0 W/m2 CLR
02:21 40.3 °F 34.3 °F 30.3 in NW 17.3 mph 17.3 mph 79 % 0 in 0.0 W/m2 CLR
02:26 40.3 °F 34.2 °F 30.3 in NW 18.4 mph 18.4 mph 79 % 0 in 0.0 W/m2 CLR
02:31 40.3 °F 34.2 °F 30.3 in NW 19.6 mph 19.6 mph 79 % 0 in 0.0 W/m2 CLR
02:36 40.3 °F 34.2 °F 30.3 in NW 19.6 mph 19.6 mph 79 % 0 in 0.0 W/m2 CLR
02:41 40.1 °F 34.2 °F 30.3 in NW 16.1 mph 16.8 mph 79 % 0 in 0.0 W/m2 CLR
02:46 40.3 °F 34.2 °F 30.3 in NW 15 mph 16.1 mph 79 % 0 in 0.0 W/m2 CLR
02:51 40.3 °F 34.5 °F 30.3 in NW 15 mph 15 mph 80 % 0 in 0.0 W/m2 CLR
02:56 40.1 °F 34.3 °F 30.3 in NW 17.3 mph 17.3 mph 80 % 0 in 0.0 W/m2 CLR
03:01 39.9 °F 34.2 °F 30.3 in NW 16.1 mph 16.1 mph 80 % 0 in 0.0 W/m2 CLR
03:06 39.7 °F 34.2 °F 30.3 in NW 11.5 mph 11.5 mph 80 % 0 in 0.0 W/m2 CLR
03:11 39.7 °F 34.3 °F 30.3 in NW 21.9 mph 21.9 mph 81 % 0 in 0.0 W/m2 CLR
03:16 39.7 °F 34.3 °F 30.3 in NW 18 mph 18 mph 81 % 0 in 0.0 W/m2 CLR
03:21 39.7 °F 34.3 °F 30.3 in NW 19.6 mph 19.6 mph 81 % 0 in 0.0 W/m2 CLR
03:26 39.7 °F 34.3 °F 30.3 in WNW 20.7 mph 20.7 mph 81 % 0 in 0.0 W/m2 CLR
03:31 39.7 °F 34.3 °F 30.3 in NW 19.6 mph 19.6 mph 81 % 0 in 0.0 W/m2 CLR
03:37 39.7 °F 34.3 °F 30.3 in NW 16.1 mph 16.1 mph 81 % 0 in 0.0 W/m2 CLR
03:42 39.6 °F 34.2 °F 30.3 in NW 15 mph 15 mph 81 % 0 in 0.0 W/m2 CLR
03:47 39.4 °F 34.2 °F 30.3 in NW 10.4 mph 10.4 mph 81 % 0 in 0.0 W/m2 CLR
03:52 39.4 °F 34.3 °F 30.3 in NW 13 mph 13 mph 82 % 0 in 0.0 W/m2 CLR
03:57 39.6 °F 34.5 °F 30.3 in NW 15 mph 15 mph 82 % 0 in 0.0 W/m2 CLR
04:02 39.7 °F 34.7 °F 30.3 in NW 16.1 mph 16.1 mph 82 % 0 in 0.0 W/m2 CLR
04:07 39.6 °F 34.5 °F 30.3 in NW 13.8 mph 14.1 mph 82 % 0 in 0.0 W/m2 CLR
04:12 39.6 °F 34.5 °F 30.3 in NW 15 mph 15 mph 82 % 0 in 0.0 W/m2 CLR
04:17 39.4 °F 34.3 °F 30.3 in NW 13 mph 13.5 mph 82 % 0 in 0.0 W/m2 CLR
04:22 39.2 °F 34.2 °F 30.3 in NW 11.5 mph 11.5 mph 82 % 0 in 0.0 W/m2 CLR
04:27 39.4 °F 34.7 °F 30.3 in NW 23 mph 23 mph 83 % 0 in 0.0 W/m2 CLR
04:32 39.6 °F 34.5 °F 30.3 in NW 19.6 mph 19.6 mph 82 % 0 in 0.0 W/m2 CLR
04:37 39.6 °F 34.5 °F 30.3 in NW 15 mph 15 mph 82 % 0 in 0.0 W/m2 CLR
04:42 39.7 °F 34.7 °F 30.3 in WNW 23 mph 23 mph 82 % 0 in 0.0 W/m2 CLR
04:47 39.6 °F 34.5 °F 30.3 in WNW 15 mph 15 mph 82 % 0 in 0.0 W/m2 CLR
04:52 39.6 °F 34.5 °F 30.3 in WNW 16.1 mph 16.1 mph 82 % 0 in 0.0 W/m2 CLR
04:57 39.6 °F 34.5 °F 30.3 in NW 15 mph 15 mph 82 % 0 in 0.0 W/m2 CLR
05:02 39.6 °F 34.5 °F 30.3 in NW 19.6 mph 19.6 mph 82 % 0 in 0.0 W/m2 CLR
05:07 39.6 °F 34.5 °F 30.3 in NW 16.1 mph 16.1 mph 82 % 0 in 0.0 W/m2 CLR
05:12 39.6 °F 34.5 °F 30.3 in WNW 17.3 mph 17.3 mph 82 % 0 in 0.0 W/m2 CLR
05:17 39.6 °F 34.5 °F 30.3 in NW 12.7 mph 12.7 mph 82 % 0 in 0.0 W/m2 CLR
05:22 39.6 °F 34.5 °F 30.3 in WNW 19.6 mph 19.6 mph 82 % 0 in 0.0 W/m2 CLR
05:27 39.7 °F 34.7 °F 30.3 in NW 15 mph 15 mph 82 % 0 in 0.0 W/m2 CLR
05:32 39.7 °F 34.9 °F 30.3 in NW 19.6 mph 19.6 mph 82 % 0 in 0.0 W/m2 CLR
05:37 39.7 °F 34.9 °F 30.3 in WNW 19 mph 19 mph 82 % 0 in 0.0 W/m2 CLR
05:42 39.7 °F 34.7 °F 30.3 in NW 20.7 mph 20.7 mph 82 % 0 in 0.0 W/m2 CLR
05:47 39.9 °F 34.9 °F 30.3 in NW 24.2 mph 24.2 mph 82 % 0 in 0.0 W/m2 CLR
05:52 39.7 °F 34.9 °F 30.3 in NW 19.6 mph 19.6 mph 82 % 0 in 0.0 W/m2 CLR
05:57 39.7 °F 35.1 °F 30.3 in NW 20.7 mph 20.7 mph 83 % 0 in 0.0 W/m2 CLR
06:02 39.6 °F 34.9 °F 30.3 in NW 19.6 mph 19.6 mph 83 % 0 in 0.0 W/m2 CLR
06:07 39.6 °F 34.9 °F 30.3 in NW 20.7 mph 20.7 mph 83 % 0 in 0.0 W/m2 CLR
06:12 39.4 °F 34.7 °F 30.3 in NW 17.3 mph 17.3 mph 83 % 0 in 0.0 W/m2 CLR
06:17 39.4 °F 34.7 °F 30.3 in NW 19.6 mph 19.6 mph 83 % 0 in 0.0 W/m2 CLR
06:22 39.6 °F 34.9 °F 30.3 in NW 19.6 mph 19.6 mph 83 % 0 in 0.0 W/m2 CLR
06:27 39.6 °F 34.9 °F 30.3 in WNW 20.7 mph 20.7 mph 83 % 0 in 0.0 W/m2 CLR
06:32 39.4 °F 34.7 °F 30.3 in NW 21.9 mph 21.9 mph 83 % 0 in 0.0 W/m2 CLR
06:37 39.6 °F 34.9 °F 30.3 in NW 24.2 mph 24.2 mph 83 % 0 in 0.0 W/m2 CLR
06:42 39.7 °F 35.1 °F 30.3 in NW 19.6 mph 19.6 mph 83 % 0 in 0.0 W/m2 CLR
06:47 39.6 °F 34.9 °F 30.3 in NW 18.4 mph 18.4 mph 83 % 0 in 0.0 W/m2 CLR
06:52 39.6 °F 34.9 °F 30.3 in NW 15 mph 15 mph 83 % 0 in 0.0 W/m2 CLR
06:57 39.7 °F 35.1 °F 30.3 in WNW 24.2 mph 24.2 mph 83 % 0 in 0.0 W/m2 CLR
07:03 39.7 °F 35.1 °F 30.3 in NW 19.6 mph 19.6 mph 83 % 0 in 0.0 W/m2 CLR
07:08 39.7 °F 35.1 °F 30.3 in NW 21.9 mph 21.9 mph 83 % 0 in 0.0 W/m2 CLR
07:13 39.7 °F 35.1 °F 30.3 in NW 21.9 mph 21.9 mph 83 % 0 in 0.0 W/m2 CLR
07:18 39.6 °F 34.9 °F 30.3 in NW 18.4 mph 18.4 mph 83 % 0 in 0.0 W/m2 CLR
07:23 39.6 °F 34.9 °F 30.3 in NW 19.6 mph 19.6 mph 83 % 0 in 0.0 W/m2 CLR
07:28 39.7 °F 35.1 °F 30.3 in NW 19.6 mph 19.6 mph 83 % 0 in 0.0 W/m2 CLR
07:33 39.7 °F 35.1 °F 30.3 in NW 19.6 mph 19.6 mph 83 % 0 in 0.0 W/m2 CLR
07:38 39.7 °F 35.1 °F 30.3 in NW 19.6 mph 19.6 mph 83 % 0 in 0.0 W/m2 CLR
07:43 39.9 °F 35.2 °F 30.3 in NW 24.2 mph 24.2 mph 83 % 0 in 0.0 W/m2 CLR
07:48 39.9 °F 35.2 °F 30.3 in NW 21.9 mph 21.9 mph 83 % 0 in 0.0 W/m2 CLR
07:53 40.1 °F 35.4 °F 30.3 in NW 23 mph 23 mph 83 % 0 in 0.0 W/m2 CLR
07:58 40.3 °F 35.2 °F 30.3 in NW 20.7 mph 20.7 mph 82 % 0 in 0.0 W/m2 CLR
08:03 40.5 °F 35.2 °F 30.3 in NW 27.6 mph 27.6 mph 82 % 0 in 0.0 W/m2 CLR
08:08 40.6 °F 35.4 °F 30.3 in NW 19.6 mph 19.6 mph 82 % 0 in 0.0 W/m2 CLR
08:13 40.6 °F 35.6 °F 30.3 in NW 23 mph 23 mph 82 % 0 in 5.0 W/m2 CLR
08:18 40.8 °F 35.8 °F 30.3 in NW 23 mph 23 mph 82 % 0 in 5.0 W/m2 CLR
08:23 40.8 °F 35.8 °F 30.3 in NW 24.2 mph 24.2 mph 82 % 0 in 5.0 W/m2 BKN
08:28 41 °F 36 °F 30.3 in NW 24 mph 24 mph 82 % 0 in 7.0 W/m2 BKN
08:33 41.2 °F 36 °F 30.3 in NW 21.9 mph 21.9 mph 82 % 0 in 11.0 W/m2 BKN
08:38 41 °F 36 °F 30.3 in NW 19 mph 19 mph 82 % 0 in 16.0 W/m2 BKN
08:43 41.2 °F 36 °F 30.3 in NW 19.6 mph 19.6 mph 82 % 0 in 23.0 W/m2 BKN
08:48 41.2 °F 36.1 °F 30.3 in NW 18 mph 18 mph 82 % 0 in 28.0 W/m2 BKN
08:53 41.2 °F 36.1 °F 30.3 in NW 26.5 mph 26.5 mph 82 % 0 in 33.0 W/m2 BKN
08:58 41.4 °F 36 °F 30.3 in NW 26 mph 26 mph 81 % 0 in 39.0 W/m2 BKN
09:03 41.5 °F 36.1 °F 30.3 in NW 24.2 mph 24.2 mph 81 % 0 in 42.0 W/m2 BKN
09:08 41.5 °F 36.1 °F 30.3 in NW 26.5 mph 26.5 mph 81 % 0 in 46.0 W/m2 BKN
09:13 41.5 °F 36.1 °F 30.3 in NW 19.6 mph 19.6 mph 81 % 0 in 51.0 W/m2 BKN
09:18 41.5 °F 36.1 °F 30.3 in NW 26.5 mph 26.5 mph 81 % 0 in 54.0 W/m2 BKN
09:23 41.7 °F 36.3 °F 30.3 in NW 21.9 mph 21.9 mph 81 % 0 in 56.0 W/m2 BKN
09:28 41.7 °F 36.3 °F 30.3 in NW 23 mph 23 mph 81 % 0 in 62.0 W/m2 BKN
09:33 42.1 °F 36.3 °F 30.3 in NW 26.5 mph 26.5 mph 80 % 0 in 128.0 W/m2 BKN
09:38 42.4 °F 36.7 °F 30.3 in NW 23 mph 23 mph 80 % 0 in 134.0 W/m2 BKN
09:43 42.6 °F 36.5 °F 30.3 in NW 26.5 mph 26.5 mph 79 % 0 in 118.0 W/m2 BKN
09:48 42.6 °F 36.1 °F 30.3 in NNW 21.9 mph 21.9 mph 78 % 0 in 120.0 W/m2 BKN
09:53 42.8 °F 36.3 °F 30.3 in NW 25.3 mph 25.3 mph 78 % 0 in 153.0 W/m2 BKN
09:58 43.2 °F 36.9 °F 30.3 in NW 19.6 mph 19.6 mph 78 % 0 in 139.0 W/m2 BKN
10:03 43.3 °F 36.7 °F 30.3 in NW 28.8 mph 28.8 mph 77 % 0 in 132.0 W/m2 BKN
10:08 43.7 °F 36.7 °F 30.3 in NW 25.3 mph 25.3 mph 76 % 0 in 137.0 W/m2 BKN
10:13 43.9 °F 36.7 °F 30.3 in NW 21 mph 21 mph 76 % 0 in 186.0 W/m2 BKN
10:18 44.1 °F 37 °F 30.3 in NW 26.5 mph 26.5 mph 76 % 0 in 269.0 W/m2 SCT
10:23 44.4 °F 37 °F 30.3 in NW 27.6 mph 27.6 mph 75 % 0 in 251.0 W/m2 SCT
10:28 44.8 °F 36.9 °F 30.3 in NW 25.3 mph 25.3 mph 74 % 0 in 299.0 W/m2 FEW
10:33 45 °F 36.9 °F 30.3 in NW 26.5 mph 26.5 mph 73 % 0 in 304.0 W/m2 FEW
10:38 45.1 °F 36.7 °F 30.3 in NW 20.7 mph 20.7 mph 72 % 0 in 267.0 W/m2 FEW
10:43 45.3 °F 36.9 °F 30.3 in NW 23 mph 23 mph 72 % 0 in 313.0 W/m2 SCT
10:48 45.3 °F 36.9 °F 30.3 in NW 26.5 mph 26.5 mph 72 % 0 in 309.0 W/m2 SCT
10:53 45.5 °F 36.7 °F 30.3 in NNW 38 mph 38 mph 71 % 0 in 283.0 W/m2 FEW
10:58 45.3 °F 36.3 °F 30.3 in NNW 26.5 mph 26.5 mph 71 % 0 in 338.0 W/m2 SCT
11:03 45.9 °F 36.9 °F 30.3 in NNW 26 mph 26 mph 71 % 0 in 350.0 W/m2 FEW
11:08 45.9 °F 37 °F 30.3 in NNW 26.5 mph 26.5 mph 71 % 0 in 359.0 W/m2 FEW
11:13 46 °F 36.9 °F 30.3 in NW 31.1 mph 31.1 mph 70 % 0 in 294.0 W/m2 FEW
11:18 46 °F 36.9 °F 30.3 in NNW 31 mph 31 mph 70 % 0 in 350.0 W/m2 FEW
11:23 46.2 °F 37 °F 30.3 in NNW 34.5 mph 34.5 mph 70 % 0 in 374.0 W/m2 FEW
11:28 46.2 °F 37 °F 30.3 in NW 35 mph 35 mph 70 % 0 in 381.0 W/m2 FEW
11:33 46.4 °F 37 °F 30.3 in NW 35.7 mph 35.7 mph 70 % 0 in 385.0 W/m2 FEW
11:38 46.6 °F 37 °F 30.3 in NW 29.9 mph 29.9 mph 69 % 0 in 396.0 W/m2 FEW
11:43 46.8 °F 37.2 °F 30.3 in NNW 33.4 mph 33.4 mph 69 % 0 in 401.0 W/m2 FEW
11:48 47.1 °F 37.4 °F 30.3 in NW 27.6 mph 27.6 mph 69 % 0 in 408.0 W/m2 FEW
11:53 47.7 °F 37.6 °F 30.3 in NNW 23 mph 23 mph 68 % 0 in 413.0 W/m2 FEW
11:58 47.8 °F 37 °F 30.3 in NNW 27.6 mph 27.6 mph 66 % 0 in 417.0 W/m2 FEW
12:03 47.8 °F 37 °F 30.3 in NNW 31.1 mph 31.1 mph 66 % 0 in 411.0 W/m2 FEW
12:08 47.8 °F 37 °F 30.3 in NNW 28.8 mph 28.8 mph 66 % 0 in 429.0 W/m2 FEW
12:13 48.4 °F 37 °F 30.3 in NNW 28 mph 28 mph 65 % 0 in 432.0 W/m2 FEW
12:18 48.6 °F 37.2 °F 30.3 in NNW 27.6 mph 27.6 mph 65 % 0 in 436.0 W/m2 CLR
12:23 48.7 °F 37.6 °F 30.3 in NNW 21 mph 21.1 mph 65 % 0 in 441.0 W/m2 CLR
12:28 48.6 °F 37.4 °F 30.3 in NNW 35.7 mph 35.7 mph 65 % 0 in 445.0 W/m2 CLR
12:34 48.6 °F 37.2 °F 30.3 in NNW 24 mph 24 mph 65 % 0 in 446.0 W/m2 CLR
12:39 48.6 °F 37.4 °F 30.3 in NW 31.1 mph 31.1 mph 65 % 0 in 450.0 W/m2 CLR
12:44 48.9 °F 37.8 °F 30.3 in NW 19.6 mph 19.6 mph 65 % 0 in 455.0 W/m2 CLR
12:49 49.1 °F 37.4 °F 30.3 in NW 29.9 mph 29.9 mph 64 % 0 in 454.0 W/m2 CLR
12:54 48.9 °F 37.2 °F 30.3 in NW 34.5 mph 34.5 mph 64 % 0 in 459.0 W/m2 CLR
12:59 48.7 °F 37.2 °F 30.3 in NNW 32.2 mph 32.2 mph 64 % 0 in 464.0 W/m2 CLR
13:04 48.9 °F 37.2 °F 30.3 in NNW 33 mph 33 mph 64 % 0 in 457.0 W/m2 CLR
13:09 48.7 °F 37.2 °F 30.3 in NNW 19.6 mph 19.6 mph 64 % 0 in 462.0 W/m2 CLR
13:14 49.5 °F 37.8 °F 30.3 in NW 25.3 mph 25.3 mph 64 % 0 in 464.0 W/m2 CLR
13:19 49.5 °F 37.8 °F 30.3 in NW 26.5 mph 26.5 mph 64 % 0 in 466.0 W/m2 CLR
13:24 49.6 °F 37.6 °F 30.2 in NW 24.2 mph 24.2 mph 63 % 0 in 434.0 W/m2 CLR
13:29 49.8 °F 37.8 °F 30.2 in NW 26 mph 26 mph 63 % 0 in 464.0 W/m2 CLR
13:34 50.2 °F 37.9 °F 30.2 in NW 20.7 mph 20.7 mph 63 % 0 in 468.0 W/m2 CLR
13:39 50.5 °F 38.5 °F 30.2 in NW 21 mph 21 mph 63 % 0 in 445.0 W/m2 CLR
13:44 50.5 °F 37.6 °F 30.2 in NW 26.5 mph 26.5 mph 61 % 0 in 452.0 W/m2 CLR
13:49 50.7 °F 37.2 °F 30.2 in NW 21.9 mph 21.9 mph 60 % 0 in 450.0 W/m2 CLR
13:54 50.7 °F 37.4 °F 30.2 in NW 21.9 mph 21.9 mph 60 % 0 in 454.0 W/m2 CLR
13:59 51.3 °F 37.4 °F 30.2 in NW 23 mph 23 mph 59 % 0 in 452.0 W/m2 CLR
14:04 51.4 °F 37.2 °F 30.2 in NW 28.8 mph 28.8 mph 58 % 0 in 446.0 W/m2 CLR
14:09 51.3 °F 36.5 °F 30.2 in NW 24.2 mph 24.2 mph 57 % 0 in 450.0 W/m2 CLR
14:14 51.4 °F 36.9 °F 30.2 in NW 25.3 mph 25.3 mph 57 % 0 in 441.0 W/m2 CLR
14:19 52 °F 36.7 °F 30.2 in NW 19 mph 19 mph 56 % 0 in 438.0 W/m2 CLR
14:24 52.2 °F 36 °F 30.2 in NW 27.6 mph 27.6 mph 54 % 0 in 373.0 W/m2 CLR
14:29 52.2 °F 35.1 °F 30.2 in NW 27.6 mph 27.6 mph 52 % 0 in 385.0 W/m2 CLR
14:34 52.2 °F 35.4 °F 30.2 in NW 31.1 mph 31.1 mph 53 % 0 in 483.0 W/m2 CLR
14:39 52.3 °F 35.8 °F 30.2 in NNW 26.5 mph 26.5 mph 53 % 0 in 443.0 W/m2 CLR
14:44 52.2 °F 35.6 °F 30.2 in NNW 23 mph 23 mph 53 % 0 in 452.0 W/m2 CLR
14:49 52.2 °F 35.4 °F 30.2 in NNW 33.4 mph 33.4 mph 53 % 0 in 362.0 W/m2 CLR
14:54 51.6 °F 35.4 °F 30.2 in NW 25.3 mph 25.3 mph 54 % 0 in 332.0 W/m2 CLR
14:59 51.4 °F 35.4 °F 30.2 in NW 29.9 mph 29.9 mph 54 % 0 in 313.0 W/m2 CLR
15:04 51.3 °F 35.8 °F 30.2 in NW 26.5 mph 26.5 mph 55 % 0 in 334.0 W/m2 CLR
15:09 51.1 °F 35.1 °F 30.2 in NW 34 mph 34 mph 54 % 0 in 229.0 W/m2 CLR
15:14 51.1 °F 34.9 °F 30.2 in NW 23 mph 23 mph 54 % 0 in 220.0 W/m2 CLR
15:19 51.1 °F 35.1 °F 30.2 in NW 34.5 mph 34.5 mph 54 % 0 in 320.0 W/m2 CLR
15:24 50.7 °F 34.5 °F 30.2 in NW 41.4 mph 41.4 mph 54 % 0 in 223.0 W/m2 FEW
15:29 50.5 °F 34.5 °F 30.2 in NW 28.8 mph 28.8 mph 54 % 0 in 229.0 W/m2 SCT
15:35 50.7 °F 34.7 °F 30.2 in NW 23 mph 23.7 mph 54 % 0 in 345.0 W/m2 SCT
15:39 50.5 °F 34.5 °F 30.2 in NW 33.4 mph 33.4 mph 54 % 0 in 179.0 W/m2 FEW
15:45 50.5 °F 34.9 °F 30.2 in NW 28.8 mph 28.8 mph 55 % 0 in 315.0 W/m2 CLR
15:50 50.7 °F 35.2 °F 30.2 in NW 29.9 mph 29.9 mph 55 % 0 in 315.0 W/m2 CLR
15:55 51.1 °F 35.1 °F 30.2 in NW 33.4 mph 33.4 mph 54 % 0 in 387.0 W/m2 CLR
16:00 51.1 °F 34.9 °F 30.2 in NW 32.2 mph 32.2 mph 54 % 0 in 323.0 W/m2 CLR
16:05 51.1 °F 34.9 °F 30.2 in NW 28.8 mph 28.8 mph 54 % 0 in 306.0 W/m2 CLR
16:10 50.9 °F 34.9 °F 30.2 in NW 29.9 mph 29.9 mph 54 % 0 in 274.0 W/m2 CLR
16:15 50.5 °F 35.1 °F 30.2 in NW 25.3 mph 25.3 mph 55 % 0 in 258.0 W/m2 CLR
16:20 50.2 °F 34.5 °F 30.2 in NW 31.1 mph 31.1 mph 55 % 0 in 213.0 W/m2 CLR
16:25 50 °F 34.9 °F 30.2 in NW 25.3 mph 25.3 mph 56 % 0 in 197.0 W/m2 CLR
16:30 49.8 °F 34.7 °F 30.2 in NNW 28.8 mph 28.8 mph 56 % 0 in 172.0 W/m2 CLR
16:35 49.8 °F 35.2 °F 30.2 in NNW 28.8 mph 28.8 mph 57 % 0 in 120.0 W/m2 CLR
16:40 49.5 °F 34.9 °F 30.2 in NW 28.8 mph 28.8 mph 57 % 0 in 144.0 W/m2 CLR
16:45 49.3 °F 35.1 °F 30.2 in NW 31.1 mph 31.1 mph 58 % 0 in 144.0 W/m2 CLR
16:50 49.1 °F 35.4 °F 30.2 in NW 32 mph 32 mph 59 % 0 in 111.0 W/m2 CLR
16:55 48.9 °F 35.2 °F 30.2 in NW 40.3 mph 40.3 mph 59 % 0 in 97.0 W/m2 CLR
17:00 48.7 °F 35.1 °F 30.2 in NW 31.1 mph 31.1 mph 59 % 0 in 83.0 W/m2 CLR
17:05 48.6 °F 35.2 °F 30.2 in NW 31.1 mph 31.1 mph 60 % 0 in 60.0 W/m2 CLR
17:10 48.4 °F 35.4 °F 30.3 in NW 31.1 mph 31.1 mph 61 % 0 in 35.0 W/m2 CLR
17:15 48 °F 35.2 °F 30.3 in NW 32.2 mph 32.2 mph 61 % 0 in 23.0 W/m2 OVC
17:20 47.8 °F 35.4 °F 30.3 in NW 28.8 mph 28.8 mph 62 % 0 in 18.0 W/m2 OVC
17:25 47.5 °F 35.4 °F 30.3 in NW 20.7 mph 20.7 mph 63 % 0 in 14.0 W/m2 OVC
17:30 47.3 °F 35.2 °F 30.3 in NW 27 mph 27 mph 63 % 0 in 14.0 W/m2 OVC
17:35 47.1 °F 35.1 °F 30.3 in NW 20.7 mph 20.7 mph 63 % 0 in 12.0 W/m2 OVC
17:40 46.9 °F 35.4 °F 30.3 in NW 27.6 mph 27.6 mph 64 % 0 in 12.0 W/m2 OVC
17:45 46.9 °F 35.8 °F 30.3 in NW 22 mph 22 mph 65 % 0 in 14.0 W/m2 OVC
17:50 46.8 °F 35.6 °F 30.3 in NW 26.5 mph 26.5 mph 65 % 0 in 11.0 W/m2 OVC
17:55 46.8 °F 36 °F 30.3 in NW 31.1 mph 31.1 mph 66 % 0 in 7.0 W/m2 OVC
18:00 46.8 °F 36 °F 30.3 in NW 25.3 mph 25.3 mph 66 % 0 in 0.0 W/m2 CLR
18:05 46.6 °F 36.1 °F 30.3 in NW 25.3 mph 25.3 mph 67 % 0 in 0.0 W/m2 CLR
18:10 46.4 °F 36 °F 30.3 in NW 27.6 mph 27.6 mph 67 % 0 in 0.0 W/m2 CLR
18:15 46.2 °F 36.1 °F 30.3 in NW 28.8 mph 28.8 mph 68 % 0 in 0.0 W/m2 CLR
18:20 46 °F 36 °F 30.3 in NW 19.6 mph 19.6 mph 68 % 0 in 0.0 W/m2 CLR
18:25 45.9 °F 36.3 °F 30.3 in NW 26.5 mph 26.5 mph 69 % 0 in 0.0 W/m2 CLR
18:30 45.9 °F 36.3 °F 30.3 in NW 20.7 mph 20.7 mph 69 % 0 in 0.0 W/m2 CLR
18:35 45.9 °F 36.1 °F 30.3 in NW 19.6 mph 19.6 mph 69 % 0 in 0.0 W/m2 CLR
18:40 45.7 °F 36.3 °F 30.3 in NW 19.6 mph 19.6 mph 70 % 0 in 0.0 W/m2 CLR
18:45 45.3 °F 36.5 °F 30.3 in NW 18 mph 18 mph 71 % 0 in 0.0 W/m2 CLR
18:50 45.3 °F 36.3 °F 30.3 in NW 21.9 mph 21.9 mph 71 % 0 in 0.0 W/m2 CLR
18:55 45.1 °F 36.7 °F 30.3 in NW 19.6 mph 19.8 mph 72 % 0 in 0.0 W/m2 CLR
19:00 45.1 °F 36.7 °F 30.3 in NW 26.5 mph 26.5 mph 72 % 0 in 0.0 W/m2 CLR
19:05 45 °F 36.5 °F 30.3 in NW 16.1 mph 16.1 mph 72 % 0 in 0.0 W/m2 CLR
19:10 45 °F 36.9 °F 30.3 in NW 21 mph 21 mph 73 % 0 in 0.0 W/m2 CLR
19:15 45 °F 36.9 °F 30.3 in NW 26.5 mph 26.5 mph 73 % 0 in 0.0 W/m2 CLR
19:20 45 °F 36.9 °F 30.3 in NW 27.6 mph 27.6 mph 73 % 0 in 0.0 W/m2 CLR
19:25 45 °F 36.9 °F 30.3 in NW 31.1 mph 31.1 mph 73 % 0 in 0.0 W/m2 CLR
19:30 45 °F 36.9 °F 30.3 in NW 27.6 mph 27.6 mph 73 % 0 in 0.0 W/m2 CLR
19:35 44.8 °F 36.7 °F 30.3 in NW 24.2 mph 24.2 mph 73 % 0 in 0.0 W/m2 CLR
19:40 44.8 °F 36.7 °F 30.3 in NW 25.3 mph 25.3 mph 73 % 0 in 0.0 W/m2 CLR
19:45 44.6 °F 36.5 °F 30.3 in NW 21.9 mph 21.9 mph 73 % 0 in 0.0 W/m2 CLR
19:50 44.6 °F 36.9 °F 30.3 in NW 26.5 mph 26.5 mph 74 % 0 in 0.0 W/m2 CLR
19:55 44.6 °F 36.9 °F 30.3 in NW 27.6 mph 27.6 mph 74 % 0 in 0.0 W/m2 CLR
19:56 44.4 °F 36.7 °F 30.3 in NW 24.2 mph 24.2 mph 74 % 0 in 0.0 W/m2 CLR
20:01 44.4 °F 36.7 °F 30.3 in NW 21 mph 21 mph 74 % 0 in 0.0 W/m2 CLR
20:06 44.4 °F 36.7 °F 30.3 in NW 26.5 mph 26.5 mph 74 % 0 in 0.0 W/m2 CLR
20:11 44.4 °F 36.7 °F 30.3 in NW 29.9 mph 29.9 mph 74 % 0 in 0.0 W/m2 CLR
20:16 44.4 °F 36.7 °F 30.3 in NW 24.2 mph 24.2 mph 74 % 0 in 0.0 W/m2 CLR
20:21 44.2 °F 36.5 °F 30.3 in NW 25.3 mph 25.3 mph 74 % 0 in 0.0 W/m2 CLR
20:26 44.2 °F 36.5 °F 30.3 in NW 32.2 mph 32.2 mph 74 % 0 in 0.0 W/m2 CLR
20:31 44.2 °F 36.3 °F 30.3 in NW 23 mph 23 mph 74 % 0 in 0.0 W/m2 CLR
20:36 44.2 °F 36.3 °F 30.3 in NW 26.5 mph 26.5 mph 74 % 0 in 0.0 W/m2 CLR
20:41 44.2 °F 36.3 °F 30.3 in NW 21.9 mph 21.9 mph 74 % 0 in 0.0 W/m2 CLR
20:46 44.1 °F 36.3 °F 30.3 in NW 22 mph 22 mph 74 % 0 in 0.0 W/m2 CLR
20:51 44.2 °F 36.3 °F 30.3 in NW 24.2 mph 24.2 mph 74 % 0 in 0.0 W/m2 CLR
20:56 44.2 °F 36.5 °F 30.3 in NNW 26.5 mph 26.5 mph 74 % 0 in 0.0 W/m2 CLR
21:01 44.2 °F 36.3 °F 30.3 in NW 26.5 mph 26.5 mph 74 % 0 in 0.0 W/m2 CLR
21:06 44.2 °F 36.3 °F 30.3 in NW 24 mph 24 mph 74 % 0 in 0.0 W/m2 CLR
21:11 44.1 °F 36.7 °F 30.3 in NW 24.2 mph 24.2 mph 75 % 0 in 0.0 W/m2 CLR
21:16 44.2 °F 37 °F 30.3 in NW 19.6 mph 19.6 mph 76 % 0 in 0.0 W/m2 CLR
21:21 44.2 °F 37 °F 30.3 in NW 31.1 mph 31.1 mph 76 % 0 in 0.0 W/m2 CLR
21:26 44.2 °F 37.2 °F 30.3 in NW 31.1 mph 31.1 mph 76 % 0 in 0.0 W/m2 CLR
21:31 44.2 °F 37.2 °F 30.3 in NW 29 mph 29 mph 76 % 0 in 0.0 W/m2 CLR
21:36 44.4 °F 37.2 °F 30.3 in NW 25.3 mph 25.3 mph 76 % 0 in 0.0 W/m2 CLR
21:41 44.2 °F 37.2 °F 30.3 in NW 26.5 mph 26.5 mph 76 % 0 in 0.0 W/m2 CLR
21:46 44.2 °F 37 °F 30.3 in NW 20.7 mph 20.7 mph 76 % 0 in 0.0 W/m2 CLR
21:51 44.2 °F 37.4 °F 30.3 in NW 21 mph 21 mph 77 % 0 in 0.0 W/m2 CLR
21:56 44.1 °F 37.2 °F 30.3 in NW 20 mph 20 mph 77 % 0 in 0.0 W/m2 CLR
22:01 44.1 °F 37.6 °F 30.3 in WNW 19 mph 19 mph 78 % 0 in 0.0 W/m2 CLR
22:06 44.1 °F 37.8 °F 30.3 in WNW 20 mph 20 mph 78 % 0 in 0.0 W/m2 CLR
22:11 44.2 °F 38.1 °F 30.3 in WNW 20.7 mph 20.7 mph 79 % 0 in 0.0 W/m2 CLR
22:16 44.2 °F 38.1 °F 30.3 in WNW 21.9 mph 21.9 mph 79 % 0 in 0.0 W/m2 CLR
22:21 44.1 °F 37.9 °F 30.3 in WNW 16.1 mph 16.1 mph 79 % 0 in 0.0 W/m2 CLR
22:26 44.1 °F 38.3 °F 30.3 in NW 18.4 mph 18.4 mph 80 % 0 in 0.0 W/m2 CLR
22:31 44.1 °F 38.3 °F 30.3 in WNW 19.6 mph 19.6 mph 80 % 0 in 0.0 W/m2 CLR
22:36 44.1 °F 38.3 °F 30.3 in NW 17.3 mph 17.3 mph 80 % 0 in 0.0 W/m2 CLR
22:41 44.1 °F 38.3 °F 30.3 in NW 16 mph 16 mph 80 % 0 in 0.0 W/m2 CLR
22:46 44.1 °F 38.3 °F 30.3 in NW 12.7 mph 12.7 mph 80 % 0 in 0.0 W/m2 CLR
22:51 44.1 °F 38.3 °F 30.3 in NW 15 mph 15 mph 80 % 0 in 0.0 W/m2 CLR
22:56 44.2 °F 38.5 °F 30.3 in NW 23 mph 23 mph 80 % 0 in 0.0 W/m2 CLR
23:01 44.4 °F 38.7 °F 30.3 in NW 26.5 mph 26.5 mph 80 % 0 in 0.0 W/m2 CLR
23:06 44.4 °F 38.7 °F 30.3 in NW 18.4 mph 18.4 mph 80 % 0 in 0.0 W/m2 CLR
23:11 44.4 °F 38.7 °F 30.3 in NW 17.3 mph 17.3 mph 80 % 0 in 0.0 W/m2 CLR
23:16 44.4 °F 38.7 °F 30.3 in NW 17.3 mph 17.3 mph 80 % 0 in 0.0 W/m2 CLR
23:21 44.8 °F 38.8 °F 30.3 in NW 23 mph 23 mph 80 % 0 in 0.0 W/m2 CLR
23:26 44.6 °F 38.8 °F 30.3 in NW 23 mph 23 mph 80 % 0 in 0.0 W/m2 CLR
23:31 44.6 °F 38.8 °F 30.3 in NW 20.7 mph 20.7 mph 80 % 0 in 0.0 W/m2 CLR
23:36 44.6 °F 38.8 °F 30.3 in NW 24.2 mph 24.2 mph 80 % 0 in 0.0 W/m2 CLR
23:41 44.6 °F 38.8 °F 30.3 in NW 19.6 mph 19.6 mph 80 % 0 in 0.0 W/m2 CLR
23:46 44.4 °F 38.7 °F 30.3 in NW 15 mph 15 mph 80 % 0 in 0.0 W/m2 CLR
23:51 44.4 °F 38.8 °F 30.3 in NW 17.3 mph 17.3 mph 81 % 0 in 0.0 W/m2 CLR
23:56 44.4 °F 39 °F 30.3 in NW 23 mph 23 mph 81 % 0 in 0.0 W/m2 CLR
Lo Temps de Massalio
Compliments of Weather Underground - 1.25 mb